Time;durP1;ratioP1;P1;durP2;ratioP2;P2;SDS_P1;SDS_P2;PMS_P1;PMS_P2;Temp;Humidity;BMP_temperature;BMP_pressure;BME280_temperature;BME280_humidity;BME280_pressure;Samples;Min_cycle;Max_cycle;Signal;HPM_P1;HPM_P2
2021/07/13 00:00:22;;;;;;;9.90;9.10;;;23.30;70.00;;;;;;10458920;28;20033;-59
2021/07/13 00:05:24;;;;;;;9.70;8.90;;;23.30;70.10;;;;;;10458888;28;20065;-58
2021/07/13 00:10:31;;;;;;;10.23;9.35;;;23.30;70.10;;;;;;10458287;28;20060;-58
2021/07/13 00:15:42;;;;;;;10.48;9.60;;;23.30;70.00;;;;;;10458562;28;20535;-58
2021/07/13 00:20:43;;;;;;;10.75;9.85;;;23.30;70.00;;;;;;10465232;28;20044;-58
2021/07/13 00:25:44;;;;;;;10.05;9.25;;;23.30;70.00;;;;;;10458020;28;20029;-57
2021/07/13 00:30:44;;;;;;;10.20;9.30;;;23.20;69.90;;;;;;10458135;28;20170;-58
2021/07/13 00:35:45;;;;;;;10.57;9.68;;;23.30;70.00;;;;;;10457938;28;20108;-58
2021/07/13 00:40:46;;;;;;;10.40;9.50;;;23.20;69.90;;;;;;10455964;28;20431;-58
2021/07/13 00:45:46;;;;;;;11.23;10.23;;;23.20;69.90;;;;;;10457246;28;20029;-58
2021/07/13 00:50:47;;;;;;;10.27;9.43;;;23.20;69.90;;;;;;10456833;28;20075;-58
2021/07/13 00:55:48;;;;;;;10.55;9.68;;;23.20;70.00;;;;;;10457300;28;20025;-58
2021/07/13 01:00:49;;;;;;;11.57;9.10;;;23.20;69.80;;;;;;10456221;28;20036;-58
2021/07/13 01:05:51;;;;;;;10.65;9.65;;;23.20;69.90;;;;;;10438999;28;20116;-58
2021/07/13 01:11:10;;;;;;;11.00;10.07;;;23.20;69.90;;;;;;10447125;28;20033;-59
2021/07/13 01:16:36;;;;;;;10.57;9.65;;;23.20;69.90;;;;;;10438106;28;20037;-59
2021/07/13 01:21:57;;;;;;;11.85;10.88;;;23.20;69.90;;;;;;10463901;28;20036;-58
2021/07/13 01:27:44;;;;;;;10.18;9.30;;;23.20;70.00;;;;;;10455931;28;20082;-59
2021/07/13 01:33:02;;;;;;;10.90;10.00;;;23.20;69.90;;;;;;10455720;28;20029;-58
2021/07/13 01:38:03;;;;;;;10.88;9.98;;;23.10;69.90;;;;;;10438264;28;20120;-58
2021/07/13 01:43:05;;;;;;;10.60;9.70;;;23.20;70.00;;;;;;10437990;28;20105;-58
2021/07/13 01:48:09;;;;;;;10.93;10.02;;;23.20;69.90;;;;;;10455013;28;20124;-58
2021/07/13 01:53:11;;;;;;;12.02;11.02;;;23.20;69.80;;;;;;10438082;28;20040;-58
2021/07/13 01:58:13;;;;;;;12.02;11.02;;;23.10;69.90;;;;;;10454942;28;20056;-58
2021/07/13 02:03:14;;;;;;;10.57;9.68;;;23.10;69.80;;;;;;10453389;28;20037;-58
2021/07/13 02:08:15;;;;;;;11.07;10.13;;;23.10;69.90;;;;;;10441236;28;20507;-58
2021/07/13 02:13:18;;;;;;;10.65;9.75;;;23.10;69.90;;;;;;10410339;28;20037;-58
2021/07/13 02:18:19;;;;;;;10.93;10.02;;;23.10;69.90;;;;;;10437388;28;20025;-58
2021/07/13 02:23:20;;;;;;;10.75;9.85;;;23.10;69.90;;;;;;10461588;28;20448;-58
2021/07/13 02:28:30;;;;;;;11.40;10.38;;;23.10;69.80;;;;;;10454554;28;20037;-58
2021/07/13 02:34:01;;;;;;;12.02;11.10;;;23.10;69.90;;;;;;10453190;28;20044;-58
2021/07/13 02:39:06;;;;;;;11.10;10.20;;;23.10;69.90;;;;;;10453429;28;20124;-58
2021/07/13 02:44:10;;;;;;;11.30;10.40;;;23.10;69.90;;;;;;10453067;28;20394;-58
2021/07/13 02:49:19;;;;;;;11.05;10.15;;;23.10;69.80;;;;;;10438054;28;20574;-58
2021/07/13 02:54:23;;;;;;;11.48;10.48;;;23.10;69.70;;;;;;10425067;28;20058;-58
2021/07/13 02:59:28;;;;;;;11.77;10.77;;;23.10;69.80;;;;;;10436425;28;20457;-58
2021/07/13 03:04:29;;;;;;;12.00;11.10;;;23.10;69.90;;;;;;10442055;28;20393;-58
2021/07/13 03:09:30;;;;;;;10.73;9.82;;;23.10;70.60;;;;;;10459819;28;20040;-58
2021/07/13 03:14:31;;;;;;;11.40;10.50;;;23.10;69.90;;;;;;10443151;28;20029;-58
2021/07/13 03:19:32;;;;;;;11.55;10.43;;;23.10;69.80;;;;;;10464323;28;20435;-58
2021/07/13 03:24:34;;;;;;;11.88;10.88;;;23.10;70.00;;;;;;10446651;28;20056;-59
2021/07/13 03:29:37;;;;;;;11.40;10.50;;;23.10;70.00;;;;;;10459111;28;20028;-58
2021/07/13 03:34:38;;;;;;;11.90;11.00;;;23.10;70.00;;;;;;10442156;28;20374;-58
2021/07/13 03:39:39;;;;;;;11.80;10.80;;;23.00;69.90;;;;;;10459182;28;20041;-58
2021/07/13 03:44:41;;;;;;;11.65;10.65;;;23.10;69.90;;;;;;10426087;28;20549;-59
2021/07/13 03:49:43;;;;;;;11.15;10.23;;;23.00;69.90;;;;;;10457621;28;20036;-58
2021/07/13 03:54:45;;;;;;;12.07;11.07;;;23.10;70.00;;;;;;10458964;28;20039;-58
2021/07/13 03:59:47;;;;;;;11.15;10.15;;;23.00;70.60;;;;;;10459258;28;20037;-58
2021/07/13 04:04:47;;;;;;;12.00;11.00;;;23.00;70.00;;;;;;10459175;28;20413;-58
2021/07/13 04:09:48;;;;;;;12.05;11.05;;;23.00;69.90;;;;;;10458462;28;20065;-58
2021/07/13 04:14:49;;;;;;;11.70;10.70;;;23.00;70.00;;;;;;10456225;28;20035;-58
2021/07/13 04:19:50;;;;;;;12.45;11.45;;;23.00;70.00;;;;;;10458831;28;20059;-58
2021/07/13 04:24:51;;;;;;;11.93;10.93;;;23.00;70.10;;;;;;10439676;28;20029;-58
2021/07/13 04:29:51;;;;;;;11.95;10.95;;;23.00;70.00;;;;;;10457277;28;20489;-58
2021/07/13 04:34:52;;;;;;;12.48;11.38;;;23.00;69.90;;;;;;10457890;28;20167;-58
2021/07/13 04:39:53;;;;;;;12.00;11.00;;;23.00;70.00;;;;;;10446676;28;20095;-57
2021/07/13 04:44:53;;;;;;;12.18;11.18;;;23.00;70.10;;;;;;10456406;28;20037;-58
2021/07/13 04:49:54;;;;;;;11.63;10.63;;;23.00;70.10;;;;;;10458732;28;20381;-58
2021/07/13 04:54:55;;;;;;;12.85;11.57;;;23.00;69.90;;;;;;10443479;28;20056;-57
2021/07/13 04:59:55;;;;;;;13.18;11.98;;;23.00;70.20;;;;;;10455893;28;20366;-63
2021/07/13 05:04:56;;;;;;;12.88;11.73;;;23.00;70.40;;;;;;10455298;28;20501;-59
2021/07/13 05:09:57;;;;;;;14.30;13.10;;;23.10;71.40;;;;;;10445190;28;20025;-61
2021/07/13 05:14:58;;;;;;;17.63;12.90;;;23.10;70.80;;;;;;10455602;28;20083;-60
2021/07/13 05:19:58;;;;;;;15.63;14.02;;;23.10;71.40;;;;;;10455266;28;20108;-61
2021/07/13 05:24:59;;;;;;;14.23;12.80;;;23.10;71.60;;;;;;10453296;28;20559;-59
2021/07/13 05:30:00;;;;;;;18.10;13.32;;;23.10;71.30;;;;;;10438731;28;20433;-57
2021/07/13 05:35:00;;;;;;;25.48;13.75;;;23.10;71.20;;;;;;10437759;28;20078;-56
2021/07/13 05:40:06;;;;;;;18.55;13.68;;;23.10;71.60;;;;;;10454901;28;20045;-58
2021/07/13 05:45:08;;;;;;;20.45;13.10;;;23.10;71.20;;;;;;10453653;28;20041;-63
2021/07/13 05:50:10;;;;;;;14.48;12.93;;;23.10;71.30;;;;;;10448353;28;20072;-60
2021/07/13 05:55:11;;;;;;;15.23;12.40;;;23.10;71.20;;;;;;10454937;28;20037;-60
2021/07/13 06:00:13;;;;;;;14.07;12.57;;;23.10;72.20;;;;;;10454689;28;20044;-45
2021/07/13 06:05:14;;;;;;;13.27;11.90;;;23.10;71.30;;;;;;10454718;28;20032;-46
2021/07/13 06:10:17;;;;;;;16.30;13.52;;;23.10;71.10;;;;;;10453544;28;20516;-46
2021/07/13 06:15:19;;;;;;;15.15;13.35;;;23.10;71.30;;;;;;10454930;28;20040;-54
2021/07/13 06:20:20;;;;;;;19.77;14.88;;;23.10;71.20;;;;;;10460147;28;20086;-62
2021/07/13 06:25:20;;;;;;;20.60;16.17;;;23.10;71.20;;;;;;10451983;28;20029;-50
2021/07/13 06:30:21;;;;;;;19.45;15.63;;;23.10;71.90;;;;;;10417130;28;20107;-58
2021/07/13 06:35:22;;;;;;;22.50;19.13;;;23.10;72.00;;;;;;10439567;28;20518;-56
2021/07/13 06:40:22;;;;;;;23.08;20.65;;;23.10;72.10;;;;;;10450084;28;20132;-55
2021/07/13 06:45:23;;;;;;;26.42;21.88;;;23.10;72.20;;;;;;10461309;28;20060;-45
2021/07/13 06:50:25;;;;;;;23.00;20.58;;;23.10;72.30;;;;;;10433207;28;20566;-56
2021/07/13 06:55:26;;;;;;;23.58;21.10;;;23.10;72.60;;;;;;10380673;28;20025;-59
2021/07/13 07:00:26;;;;;;;26.77;21.02;;;23.10;72.50;;;;;;10461223;28;20073;-60
2021/07/13 07:05:27;;;;;;;26.13;20.40;;;23.10;72.20;;;;;;10460942;28;20108;-59
2021/07/13 07:10:28;;;;;;;25.27;20.02;;;23.10;72.40;;;;;;10460406;28;20111;-58
2021/07/13 07:15:29;;;;;;;23.83;21.35;;;23.10;72.50;;;;;;10444375;28;20021;-58
2021/07/13 07:20:30;;;;;;;23.52;21.02;;;23.10;72.60;;;;;;10467392;28;20040;-60
2021/07/13 07:25:31;;;;;;;21.98;19.55;;;23.10;72.50;;;;;;10457496;28;21281;-59
2021/07/13 07:30:32;;;;;;;22.90;19.85;;;23.10;72.50;;;;;;10458200;28;20044;-58
2021/07/13 07:35:33;;;;;;;23.15;19.52;;;23.00;72.40;;;;;;10460465;28;20040;-59
2021/07/13 07:40:34;;;;;;;23.35;20.98;;;23.10;72.50;;;;;;10459863;28;20068;-60
2021/07/13 07:45:35;;;;;;;22.33;20.05;;;23.00;72.60;;;;;;10459553;28;20373;-59
2021/07/13 07:50:36;;;;;;;23.75;21.23;;;23.00;72.50;;;;;;10465465;28;20041;-60
2021/07/13 07:55:38;;;;;;;21.17;19.05;;;23.00;72.60;;;;;;10459358;28;20028;-62
2021/07/13 08:00:39;;;;;;;21.42;19.27;;;23.10;72.70;;;;;;10457292;28;20033;-56
2021/07/13 08:05:40;;;;;;;22.52;20.05;;;23.10;72.70;;;;;;10437568;28;20027;-55
2021/07/13 08:10:41;;;;;;;21.27;18.98;;;23.10;72.70;;;;;;10457012;28;20036;-55
2021/07/13 08:15:41;;;;;;;21.88;19.13;;;23.00;72.40;;;;;;10456316;28;20033;-55
2021/07/13 08:20:42;;;;;;;19.73;17.63;;;23.00;72.10;;;;;;10465047;28;20055;-54
2021/07/13 08:25:43;;;;;;;20.95;17.02;;;23.00;72.00;;;;;;10455574;28;20029;-55
2021/07/13 08:30:45;;;;;;;19.63;17.63;;;23.00;71.90;;;;;;10439594;28;20470;-55
2021/07/13 08:35:45;;;;;;;22.13;17.85;;;23.00;71.80;;;;;;10458004;28;20033;-55
2021/07/13 08:40:47;;;;;;;20.35;17.80;;;23.00;71.90;;;;;;10457415;28;20127;-55
2021/07/13 08:45:52;;;;;;;19.77;17.65;;;23.00;71.80;;;;;;10456633;28;20036;-55
2021/07/13 08:50:57;;;;;;;19.33;17.42;;;23.00;71.80;;;;;;10456868;28;20032;-55
2021/07/13 08:55:58;;;;;;;18.35;16.45;;;23.00;71.80;;;;;;10456932;28;20033;-56
2021/07/13 09:00:59;;;;;;;18.50;16.60;;;23.00;71.80;;;;;;10455993;28;20039;-56
2021/07/13 09:06:00;;;;;;;18.13;16.23;;;23.00;71.70;;;;;;10456737;28;20032;-56
2021/07/13 09:11:16;;;;;;;18.33;16.52;;;23.00;71.70;;;;;;10455051;28;20024;-56
2021/07/13 09:16:26;;;;;;;18.88;16.98;;;23.00;71.70;;;;;;10455083;28;20032;-56
2021/07/13 09:21:33;;;;;;;17.50;15.57;;;23.00;71.60;;;;;;10463605;28;20032;-57
2021/07/13 09:26:51;;;;;;;15.82;14.32;;;23.00;71.70;;;;;;10442684;28;20451;-56
2021/07/13 09:31:52;;;;;;;16.67;14.95;;;23.00;71.80;;;;;;10456160;28;20033;-56
2021/07/13 09:36:54;;;;;;;17.92;16.23;;;23.00;71.90;;;;;;10454177;28;20033;-56
2021/07/13 09:41:55;;;;;;;17.13;15.40;;;23.00;71.90;;;;;;10455342;28;20027;-56
2021/07/13 09:46:56;;;;;;;15.80;14.20;;;23.00;71.90;;;;;;10455245;28;20021;-56
2021/07/13 09:52:04;;;;;;;17.35;15.65;;;23.00;71.80;;;;;;10437593;28;20036;-56
2021/07/13 09:57:27;;;;;;;16.95;15.18;;;23.00;72.00;;;;;;10455095;28;20025;-56
2021/07/13 10:02:27;;;;;;;16.13;14.43;;;23.00;72.00;;;;;;10454918;28;20488;-55
2021/07/13 10:07:30;;;;;;;16.33;14.77;;;23.00;72.10;;;;;;10454756;28;20055;-55
2021/07/13 10:12:32;;;;;;;16.05;14.45;;;23.00;72.10;;;;;;10458472;28;20104;-56
2021/07/13 10:17:33;;;;;;;17.40;15.70;;;23.00;72.00;;;;;;10463836;28;20041;-56
2021/07/13 10:22:38;;;;;;;16.50;14.80;;;23.00;72.10;;;;;;10470359;28;20108;-56
2021/07/13 10:27:50;;;;;;;16.95;14.73;;;23.00;72.20;;;;;;10462935;28;20442;-55
2021/07/13 10:32:51;;;;;;;16.25;14.65;;;23.00;72.10;;;;;;10462620;28;20030;-56
2021/07/13 10:37:56;;;;;;;15.32;13.80;;;23.00;72.30;;;;;;10462292;28;20124;-55
2021/07/13 10:43:16;;;;;;;15.50;14.10;;;23.00;72.30;;;;;;10462463;28;20025;-55
2021/07/13 10:48:21;;;;;;;14.65;13.23;;;23.00;72.20;;;;;;10462275;28;20029;-56
2021/07/13 10:53:24;;;;;;;15.38;13.98;;;23.00;72.20;;;;;;10461824;28;20369;-56
2021/07/13 10:58:35;;;;;;;14.75;13.32;;;23.00;72.20;;;;;;10461584;28;20036;-56
2021/07/13 11:03:36;;;;;;;14.00;12.65;;;23.00;72.20;;;;;;10461192;28;20037;-57
2021/07/13 11:08:40;;;;;;;15.75;14.10;;;23.00;72.30;;;;;;10461289;28;20097;-56
2021/07/13 11:13:51;;;;;;;15.90;14.50;;;23.00;72.40;;;;;;10460521;28;20120;-56
2021/07/13 11:18:52;;;;;;;18.65;13.60;;;23.00;72.50;;;;;;10445736;28;20036;-56
2021/07/13 11:23:58;;;;;;;14.55;13.18;;;23.00;73.20;;;;;;10460110;28;20064;-56
2021/07/13 11:29:04;;;;;;;15.18;13.68;;;23.00;72.60;;;;;;10460280;28;20111;-56
2021/07/13 11:34:08;;;;;;;15.75;14.25;;;23.00;72.60;;;;;;10460408;28;20037;-55
2021/07/13 11:39:24;;;;;;;14.75;13.25;;;23.00;72.60;;;;;;10459845;28;20114;-56
2021/07/13 11:44:25;;;;;;;15.10;13.70;;;23.00;72.60;;;;;;10460220;28;20032;-56
2021/07/13 11:49:28;;;;;;;12.88;11.57;;;23.00;72.60;;;;;;10433336;28;20032;-56
2021/07/13 11:54:41;;;;;;;14.45;13.05;;;23.00;72.60;;;;;;10459810;28;20036;-57
2021/07/13 11:59:43;;;;;;;15.40;13.25;;;23.00;72.60;;;;;;10454883;28;20041;-56
2021/07/13 12:04:50;;;;;;;14.95;13.45;;;23.00;72.60;;;;;;10458872;28;20380;-57
2021/07/13 12:10:05;;;;;;;15.02;13.63;;;23.00;72.90;;;;;;10459245;28;20037;-57
2021/07/13 12:15:06;;;;;;;16.20;14.60;;;23.00;72.90;;;;;;10458045;28;20029;-57
2021/07/13 12:20:09;;;;;;;14.05;12.65;;;23.00;73.20;;;;;;10458169;28;20435;-57
2021/07/13 12:25:10;;;;;;;14.80;13.30;;;23.00;73.90;;;;;;10455076;28;20037;-57
2021/07/13 12:30:14;;;;;;;14.88;13.45;;;23.10;74.00;;;;;;10456559;28;20159;-57
2021/07/13 12:35:17;;;;;;;13.68;12.27;;;23.10;73.80;;;;;;10457452;28;20362;-57
2021/07/13 12:40:18;;;;;;;15.48;13.88;;;23.10;74.00;;;;;;10441248;28;20041;-57
2021/07/13 12:45:24;;;;;;;15.55;13.95;;;23.10;74.30;;;;;;10456610;28;20033;-58
2021/07/13 12:50:29;;;;;;;15.88;14.40;;;23.10;74.50;;;;;;10457454;28;20112;-57
2021/07/13 12:55:40;;;;;;;15.60;14.10;;;23.10;74.40;;;;;;10457225;28;20040;-57
2021/07/13 13:00:51;;;;;;;16.10;14.50;;;23.10;74.20;;;;;;10453713;28;20108;-57
2021/07/13 13:06:02;;;;;;;14.95;13.45;;;23.10;74.30;;;;;;10455568;28;20032;-57
2021/07/13 13:11:23;;;;;;;14.88;13.32;;;23.10;74.30;;;;;;10454738;28;20048;-58
2021/07/13 13:16:28;;;;;;;13.02;11.75;;;23.10;74.10;;;;;;10454233;28;20396;-57
2021/07/13 13:21:30;;;;;;;14.80;13.38;;;23.10;73.90;;;;;;10456745;28;20040;-58
2021/07/13 13:26:32;;;;;;;14.63;13.20;;;23.10;73.70;;;;;;10455463;28;20029;-57
2021/07/13 13:31:33;;;;;;;15.15;13.25;;;23.10;73.70;;;;;;10442512;28;20041;-58
2021/07/13 13:36:40;;;;;;;14.98;13.48;;;23.10;73.80;;;;;;10455431;28;20183;-57
2021/07/13 13:41:42;;;;;;;16.63;15.02;;;23.10;73.70;;;;;;10455735;28;20061;-56
2021/07/13 13:46:43;;;;;;;15.98;14.38;;;23.10;73.60;;;;;;10454168;28;20112;-57
2021/07/13 13:51:44;;;;;;;15.55;14.07;;;23.10;73.70;;;;;;10454768;28;20135;-57
2021/07/13 13:56:44;;;;;;;17.40;15.10;;;23.10;73.60;;;;;;10455109;28;20544;-58
2021/07/13 14:01:45;;;;;;;15.80;14.30;;;23.10;73.80;;;;;;10453878;28;20033;-57
2021/07/13 14:06:46;;;;;;;16.00;14.10;;;23.10;73.40;;;;;;10439052;28;20082;-58
2021/07/13 14:11:46;;;;;;;16.13;14.55;;;23.10;73.50;;;;;;10454612;28;20104;-58
2021/07/13 14:16:47;;;;;;;17.23;15.43;;;23.10;73.50;;;;;;10454405;28;20484;-58
2021/07/13 14:21:48;;;;;;;15.13;13.60;;;23.10;73.40;;;;;;10461972;28;20033;-58
2021/07/13 14:26:48;;;;;;;17.77;14.65;;;23.00;73.30;;;;;;10454582;28;20052;-58
2021/07/13 14:31:49;;;;;;;15.80;14.20;;;23.10;73.40;;;;;;10454672;28;20044;-58
2021/07/13 14:36:50;;;;;;;14.70;12.98;;;23.00;73.30;;;;;;10454525;28;20074;-57
2021/07/13 14:41:51;;;;;;;16.35;14.70;;;23.10;73.30;;;;;;10454191;28;20037;-57
2021/07/13 14:46:51;;;;;;;15.43;13.93;;;23.00;73.20;;;;;;10454079;28;20032;-57
2021/07/13 14:51:52;;;;;;;14.93;13.43;;;23.00;73.00;;;;;;10454111;28;20060;-58
2021/07/13 14:56:53;;;;;;;15.48;13.95;;;23.10;73.20;;;;;;10454077;28;20454;-57
2021/07/13 15:01:53;;;;;;;15.02;13.52;;;23.10;73.20;;;;;;10461043;28;20594;-57
2021/07/13 15:06:54;;;;;;;14.43;13.05;;;23.00;73.10;;;;;;10461090;28;20563;-58
2021/07/13 15:11:56;;;;;;;14.23;12.82;;;23.10;73.10;;;;;;10460766;28;20032;-57
2021/07/13 15:17:02;;;;;;;15.07;13.63;;;23.10;73.60;;;;;;10460944;28;20029;-58
2021/07/13 15:22:04;;;;;;;18.67;13.35;;;23.10;73.00;;;;;;10466500;28;20033;-57
2021/07/13 15:27:04;;;;;;;16.15;14.65;;;23.00;73.00;;;;;;10460416;28;20028;-58
2021/07/13 15:32:06;;;;;;;15.57;13.98;;;23.10;73.10;;;;;;10460353;28;20038;-57
2021/07/13 15:37:06;;;;;;;15.45;13.95;;;23.10;73.20;;;;;;10459944;28;20049;-57
2021/07/13 15:42:07;;;;;;;15.02;13.63;;;23.00;73.00;;;;;;10460281;28;20553;-57
2021/07/13 15:47:08;;;;;;;16.45;14.73;;;23.10;73.00;;;;;;10459909;28;20104;-57
2021/07/13 15:52:09;;;;;;;14.88;13.30;;;23.10;73.00;;;;;;10441246;28;20074;-57
2021/07/13 15:57:10;;;;;;;15.88;14.27;;;23.10;73.20;;;;;;10459559;28;20036;-57
2021/07/13 16:02:11;;;;;;;15.13;13.50;;;23.10;73.10;;;;;;10458572;28;20079;-58
2021/07/13 16:07:12;;;;;;;16.02;14.52;;;23.00;73.00;;;;;;10459279;28;20052;-58
2021/07/13 16:12:12;;;;;;;15.55;14.05;;;23.00;73.10;;;;;;10457777;28;20033;-57
2021/07/13 16:17:13;;;;;;;15.07;13.75;;;23.00;73.10;;;;;;10458041;28;20072;-57
2021/07/13 16:22:14;;;;;;;18.23;15.88;;;23.00;73.40;;;;;;10462156;28;20029;-57
2021/07/13 16:27:15;;;;;;;15.90;14.40;;;23.10;73.50;;;;;;10457499;28;20099;-57
2021/07/13 16:32:16;;;;;;;15.43;13.68;;;23.10;73.40;;;;;;10457045;28;20056;-57
2021/07/13 16:37:17;;;;;;;15.23;13.73;;;23.10;73.50;;;;;;10457757;28;20069;-57
2021/07/13 16:42:17;;;;;;;18.17;14.68;;;23.10;73.40;;;;;;10457226;28;20033;-60
2021/07/13 16:47:18;;;;;;;21.70;13.50;;;23.10;73.70;;;;;;10456717;28;20485;-59
2021/07/13 16:52:19;;;;;;;22.10;14.13;;;23.10;73.60;;;;;;10457281;28;20025;-60
2021/07/13 16:57:20;;;;;;;18.48;14.13;;;23.10;73.60;;;;;;10457042;28;20082;-58
2021/07/13 17:02:21;;;;;;;17.88;15.18;;;23.10;73.50;;;;;;10456936;28;20072;-59
2021/07/13 17:07:21;;;;;;;17.75;14.65;;;23.10;73.80;;;;;;10456846;28;20048;-59
2021/07/13 17:12:22;;;;;;;17.27;14.73;;;23.10;73.50;;;;;;10455532;28;20140;-58
2021/07/13 17:17:23;;;;;;;17.02;15.27;;;23.10;73.60;;;;;;10435785;28;20029;-57
2021/07/13 17:22:23;;;;;;;17.08;14.07;;;23.10;73.60;;;;;;10441220;28;20072;-58
2021/07/13 17:27:24;;;;;;;16.33;14.63;;;23.10;73.70;;;;;;10437940;28;20036;-57
2021/07/13 17:32:25;;;;;;;19.83;17.83;;;23.10;73.80;;;;;;10455909;28;20103;-57
2021/07/13 17:37:25;;;;;;;26.88;24.00;;;23.10;73.60;;;;;;10455742;28;20052;-57
2021/07/13 17:42:26;;;;;;;26.73;24.08;;;23.10;73.80;;;;;;10455395;28;20071;-57
2021/07/13 17:47:28;;;;;;;82.35;71.25;;;23.10;73.90;;;;;;10455834;28;20051;-57
2021/07/13 17:52:28;;;;;;;36.90;32.83;;;23.10;74.40;;;;;;10455298;28;20422;-56
2021/07/13 17:57:29;;;;;;;35.38;29.58;;;23.10;74.50;;;;;;10455449;28;20037;-58
2021/07/13 18:02:30;;;;;;;33.47;24.98;;;23.10;74.70;;;;;;10454449;28;20064;-58
2021/07/13 18:07:30;;;;;;;24.63;20.10;;;23.20;74.60;;;;;;10454000;28;20107;-57
2021/07/13 18:12:31;;;;;;;23.88;20.15;;;23.20;74.20;;;;;;10452363;28;20429;-56
2021/07/13 18:17:32;;;;;;;21.27;18.60;;;23.20;74.40;;;;;;10423714;28;20454;-57
2021/07/13 18:22:33;;;;;;;20.08;17.88;;;23.20;74.40;;;;;;10455046;28;20100;-57
2021/07/13 18:27:34;;;;;;;26.83;19.25;;;23.20;74.50;;;;;;10436561;28;20025;-56
2021/07/13 18:32:35;;;;;;;21.23;18.98;;;23.20;74.40;;;;;;10452092;28;20059;-57
2021/07/13 18:37:36;;;;;;;19.33;16.73;;;23.20;74.20;;;;;;10457370;28;20052;-57
2021/07/13 18:42:37;;;;;;;20.33;16.85;;;23.20;74.10;;;;;;10460294;28;20104;-57
2021/07/13 18:47:37;;;;;;;20.10;15.93;;;23.10;74.10;;;;;;10452852;28;20112;-57
2021/07/13 18:52:38;;;;;;;17.60;15.15;;;23.10;74.10;;;;;;10456652;28;20057;-57
2021/07/13 18:57:39;;;;;;;16.08;14.48;;;23.10;74.20;;;;;;10459439;28;20021;-57
2021/07/13 19:02:40;;;;;;;19.13;16.30;;;23.10;74.30;;;;;;10457170;28;20442;-56
2021/07/13 19:07:40;;;;;;;16.70;14.98;;;23.10;74.30;;;;;;10457073;28;20064;-57
2021/07/13 19:12:41;;;;;;;23.13;16.75;;;23.10;74.30;;;;;;10447167;28;20110;-57
2021/07/13 19:17:42;;;;;;;17.17;15.35;;;23.10;74.30;;;;;;10452257;28;20029;-56
2021/07/13 19:22:43;;;;;;;19.50;15.82;;;23.10;74.10;;;;;;10465907;28;20033;-57
2021/07/13 19:27:44;;;;;;;16.33;14.63;;;23.10;74.00;;;;;;10454056;28;20043;-57
2021/07/13 19:32:46;;;;;;;19.52;15.30;;;23.10;73.90;;;;;;10457539;28;20025;-56
2021/07/13 19:37:47;;;;;;;17.50;15.63;;;23.10;73.80;;;;;;10458480;28;20047;-55
2021/07/13 19:42:50;;;;;;;18.35;15.50;;;23.10;73.80;;;;;;10458273;28;20029;-57
2021/07/13 19:47:51;;;;;;;16.58;14.77;;;23.10;73.70;;;;;;10460000;28;20025;-57
2021/07/13 19:52:52;;;;;;;17.77;15.98;;;23.10;73.70;;;;;;10441823;28;20040;-56
2021/07/13 19:57:53;;;;;;;16.52;14.30;;;23.10;73.70;;;;;;10459657;28;20119;-56
2021/07/13 20:02:54;;;;;;;15.70;14.00;;;23.10;73.60;;;;;;10459528;28;20068;-56
2021/07/13 20:07:55;;;;;;;17.70;15.07;;;23.10;74.20;;;;;;10459363;28;20110;-57
2021/07/13 20:12:56;;;;;;;15.05;13.32;;;23.10;73.50;;;;;;10459083;28;20033;-56
2021/07/13 20:17:57;;;;;;;15.60;14.00;;;23.10;73.50;;;;;;10458801;28;20469;-57
2021/07/13 20:22:58;;;;;;;14.63;13.13;;;23.00;73.40;;;;;;10467042;28;20029;-57
2021/07/13 20:27:59;;;;;;;15.88;14.18;;;23.00;73.40;;;;;;10458489;28;20025;-56
2021/07/13 20:33:00;;;;;;;15.63;14.15;;;23.00;73.40;;;;;;10457981;28;20431;-57
2021/07/13 20:38:00;;;;;;;15.63;14.02;;;23.00;73.90;;;;;;10457951;28;20067;-57
2021/07/13 20:43:03;;;;;;;15.63;13.95;;;23.00;73.40;;;;;;10457679;28;20060;-57
2021/07/13 20:48:04;;;;;;;16.27;13.45;;;23.00;73.20;;;;;;10456863;28;20025;-57
2021/07/13 20:53:05;;;;;;;15.95;14.25;;;23.00;73.10;;;;;;10457694;28;20118;-57
2021/07/13 20:58:06;;;;;;;16.50;14.90;;;23.00;73.30;;;;;;10456356;28;20400;-57
2021/07/13 21:03:09;;;;;;;14.88;13.48;;;23.00;73.30;;;;;;10439218;28;20036;-57
2021/07/13 21:08:10;;;;;;;14.88;13.40;;;23.00;73.30;;;;;;10456705;28;20040;-57
2021/07/13 21:13:12;;;;;;;14.82;13.30;;;23.00;73.30;;;;;;10456476;28;20025;-56
2021/07/13 21:18:13;;;;;;;15.55;14.13;;;23.00;73.20;;;;;;10456255;28;20048;-55
2021/07/13 21:23:14;;;;;;;14.40;13.00;;;23.00;73.30;;;;;;10444550;28;20124;-56
2021/07/13 21:28:16;;;;;;;16.48;14.85;;;23.00;73.30;;;;;;10455760;28;20051;-57
2021/07/13 21:33:17;;;;;;;15.05;13.63;;;23.00;74.00;;;;;;10456032;28;20108;-57
2021/07/13 21:38:18;;;;;;;16.25;13.63;;;23.00;73.50;;;;;;10455330;28;20161;-57
2021/07/13 21:43:19;;;;;;;14.05;12.65;;;23.00;73.40;;;;;;10455715;28;20033;-57
2021/07/13 21:48:20;;;;;;;14.43;13.02;;;23.00;73.50;;;;;;10455610;28;20128;-56
2021/07/13 21:53:20;;;;;;;14.73;13.43;;;23.00;73.50;;;;;;10455662;28;20021;-56
2021/07/13 21:58:21;;;;;;;15.20;13.70;;;22.90;73.50;;;;;;10455600;28;20027;-58
2021/07/13 22:03:22;;;;;;;14.50;13.10;;;23.00;73.30;;;;;;10437609;28;20067;-56
2021/07/13 22:08:23;;;;;;;14.77;13.27;;;22.90;73.30;;;;;;10459784;28;20481;-56
2021/07/13 22:13:23;;;;;;;14.55;13.10;;;22.90;73.40;;;;;;10445750;28;20484;-56
2021/07/13 22:18:24;;;;;;;15.18;13.57;;;23.00;73.50;;;;;;10445602;28;20069;-57
2021/07/13 22:23:25;;;;;;;14.27;12.82;;;22.90;73.40;;;;;;10469680;28;20416;-57
2021/07/13 22:28:26;;;;;;;14.88;13.38;;;22.90;73.40;;;;;;10462919;28;20079;-56
2021/07/13 22:33:27;;;;;;;15.57;14.07;;;22.90;73.40;;;;;;10462862;28;20112;-56
2021/07/13 22:38:28;;;;;;;16.35;13.77;;;22.90;73.40;;;;;;10444554;28;20556;-56
2021/07/13 22:43:30;;;;;;;14.73;13.23;;;22.90;73.50;;;;;;10462325;28;20906;-57
2021/07/13 22:48:31;;;;;;;14.57;13.32;;;22.90;73.50;;;;;;10457476;28;20060;-57
2021/07/13 22:53:33;;;;;;;14.90;13.13;;;22.90;73.40;;;;;;10462131;28;20036;-57
2021/07/13 22:58:33;;;;;;;14.70;13.23;;;22.90;73.40;;;;;;10461310;28;20115;-57
2021/07/13 23:03:34;;;;;;;14.45;13.15;;;22.90;73.40;;;;;;10461465;28;20029;-56
2021/07/13 23:08:35;;;;;;;15.18;13.23;;;22.90;73.30;;;;;;10461606;28;20424;-57
2021/07/13 23:13:37;;;;;;;14.63;13.13;;;22.90;73.30;;;;;;10461333;28;20127;-57
2021/07/13 23:23:48;;;;;;;13.88;12.23;;;22.90;73.40;;;;;;10467619;28;20481;-56
2021/07/13 23:28:48;;;;;;;14.30;12.93;;;22.90;73.50;;;;;;10460489;28;20036;-57
2021/07/13 23:33:49;;;;;;;14.93;12.88;;;22.90;73.50;;;;;;10460565;28;20044;-56
2021/07/13 23:38:50;;;;;;;13.55;12.25;;;22.90;73.60;;;;;;10442712;28;20373;-56
2021/07/13 23:43:53;;;;;;;13.65;12.25;;;22.80;73.40;;;;;;10460429;28;20099;-57
2021/07/13 23:48:53;;;;;;;14.30;12.90;;;22.90;73.40;;;;;;10459959;28;20028;-57
2021/07/13 23:53:54;;;;;;;15.68;13.52;;;22.90;73.40;;;;;;10460086;28;20519;-57
2021/07/13 23:58:55;;;;;;;14.63;13.05;;;22.90;73.60;;;;;;10441896;28;20032;-57
